| time (UTC) | temp C | wind direction | speed KPH | gust KPH | rain 1hr cm | rain 24hr cm | rain mn cm | humidity % | barometer mb |
| 20260905212035 | 14 | 351 | 0.0 | 0.0 | 0.00 | 0.20 | 0.20 | 67 | 1025.9 |
| 20260905211117 | 14 | 351 | 0.0 | 0.0 | 0.00 | 0.20 | 0.20 | 67 | 1025.9 |
| 20260905205616 | 15 | 351 | 0.0 | 0.0 | 0.00 | 0.20 | 0.20 | 64 | 1025.5 |
| 20260905204108 | 15 | 351 | 0.0 | 3.2 | 0.00 | 0.20 | 0.20 | 61 | 1025.5 |
| 20260905202628 | 16 | 334 | 0.0 | 1.6 | 0.00 | 0.20 | 0.20 | 59 | 1025.3 |
| 20260905201107 | 16 | 286 | 0.0 | 3.2 | 0.00 | 0.20 | 0.20 | 58 | 1025.1 |
| 20260905195607 | 16 | 270 | 0.0 | 3.2 | 0.00 | 0.20 | 0.20 | 56 | 1024.7 |
| 20260905194107 | 16 | 247 | 0.0 | 4.8 | 0.00 | 0.20 | 0.20 | 56 | 1024.4 |
| 20260905192607 | 16 | 273 | 0.0 | 3.2 | 0.00 | 0.20 | 0.20 | 57 | 1024.5 |
| 20260905191114 | 16 | 282 | 0.0 | 4.8 | 0.00 | 0.20 | 0.20 | 55 | 1024.4 |
| 20260905185607 | 16 | 247 | 0.0 | 6.4 | 0.00 | 0.20 | 0.20 | 55 | 1024.2 |
| 20260905184114 | 16 | 283 | 3.2 | 4.8 | 0.00 | 0.20 | 0.20 | 56 | 1024.0 |
| 20260905182611 | 16 | 14 | 0.0 | 4.8 | 0.00 | 0.20 | 0.20 | 56 | 1023.8 |
| 20260905181107 | 16 | 262 | 0.0 | 3.2 | 0.00 | 0.20 | 0.20 | 56 | 1023.5 |
| 20260905175608 | 17 | 239 | 0.0 | 1.6 | 0.00 | 0.20 | 0.20 | 55 | 1023.5 |
| 20260905174107 | 17 | 278 | 0.0 | 6.4 | 0.00 | 0.20 | 0.20 | 53 | 1023.1 |
| 20260905172607 | 18 | 215 | 1.6 | 4.8 | 0.00 | 0.20 | 0.20 | 51 | 1022.8 |
| 20260905171107 | 18 | 334 | 0.0 | 4.8 | 0.00 | 0.20 | 0.20 | 50 | 1022.9 |
| 20260905165611 | 18 | 307 | 0.0 | 4.8 | 0.00 | 0.20 | 0.20 | 49 | 1022.7 |
| 20260905164108 | 19 | 279 | 0.0 | 4.8 | 0.00 | 0.20 | 0.20 | 47 | 1022.6 |
| 20260905162610 | 20 | 359 | 0.0 | 9.7 | 0.00 | 0.20 | 0.20 | 46 | 1022.6 |
| 20260905161107 | 21 | 314 | 0.0 | 6.4 | 0.00 | 0.20 | 0.20 | 44 | 1022.1 |
| 20260905155604 | 21 | 286 | 3.2 | 6.4 | 0.00 | 0.20 | 0.20 | 45 | 1022.0 |
| 20260905154049 | 21 | 300 | 0.0 | 12.9 | 0.00 | 0.20 | 0.20 | 45 | 1022.0 |
| 20260905152549 | 20 | 275 | 1.6 | 11.3 | 0.00 | 0.20 | 0.20 | 46 | 1022.3 |
| 20260905151049 | 21 | 291 | 4.8 | 14.5 | 0.00 | 0.20 | 0.20 | 44 | 1022.1 |
| 20260905145549 | 21 | 231 | 0.0 | 14.5 | 0.00 | 0.20 | 0.20 | 46 | 1022.0 |
| 20260905144051 | 21 | 309 | 1.6 | 9.7 | 0.00 | 0.20 | 0.20 | 44 | 1021.8 |
| 20260905142550 | 21 | 328 | 0.0 | 9.7 | 0.00 | 0.20 | 0.20 | 47 | 1021.9 |
| 20260905141050 | 21 | 245 | 4.8 | 11.3 | 0.00 | 0.20 | 0.20 | 47 | 1021.8 |
| 20260905135549 | 21 | 290 | 6.4 | 11.3 | 0.00 | 0.20 | 0.20 | 45 | 1022.0 |
| 20260905134048 | 21 | 285 | 3.2 | 9.7 | 0.00 | 0.20 | 0.20 | 46 | 1021.9 |
| 20260905132550 | 21 | 274 | 1.6 | 12.9 | 0.00 | 0.20 | 0.20 | 46 | 1022.2 |
| 20260905131049 | 21 | 198 | 1.6 | 9.7 | 0.00 | 0.20 | 0.20 | 47 | 1021.9 |
| 20260905125552 | 21 | 204 | 1.6 | 12.9 | 0.00 | 0.20 | 0.20 | 47 | 1022.1 |
| 20260905124048 | 21 | 251 | 3.2 | 16.1 | 0.00 | 0.20 | 0.20 | 47 | 1022.1 |
| 20260905122549 | 21 | 289 | 3.2 | 12.9 | 0.00 | 0.20 | 0.20 | 48 | 1022.2 |
| 20260905121049 | 21 | 274 | 6.4 | 20.9 | 0.00 | 0.20 | 0.20 | 49 | 1022.3 |
| 20260905115548 | 21 | 288 | 3.2 | 11.3 | 0.00 | 0.20 | 0.20 | 52 | 1022.5 |
| 20260905114050 | 20 | 249 | 1.6 | 11.3 | 0.00 | 0.20 | 0.20 | 53 | 1022.7 |
| 20260905112549 | 21 | 271 | 3.2 | 6.4 | 0.00 | 0.20 | 0.20 | 52 | 1022.4 |
| 20260905111053 | 20 | 322 | 0.0 | 9.7 | 0.00 | 0.20 | 0.20 | 52 | 1022.7 |
| 20260905105548 | 20 | 289 | 0.0 | 9.7 | 0.00 | 0.20 | 0.20 | 54 | 1022.5 |
| 20260905104048 | 21 | 280 | 0.0 | 17.7 | 0.00 | 0.20 | 0.20 | 53 | 1022.5 |
| 20260905102548 | 20 | 282 | 3.2 | 14.5 | 0.00 | 0.20 | 0.20 | 55 | 1022.7 |
| 20260905101048 | 20 | 206 | 0.0 | 11.3 | 0.00 | 0.20 | 0.20 | 57 | 1022.8 |
| 20260905095548 | 20 | 275 | 8.0 | 17.7 | 0.00 | 0.20 | 0.20 | 57 | 1022.3 |
| 20260905094048 | 20 | 265 | 1.6 | 9.7 | 0.00 | 0.20 | 0.20 | 57 | 1022.4 |
| 20260905092551 | 20 | 251 | 3.2 | 20.9 | 0.00 | 0.20 | 0.20 | 57 | 1022.6 |
| 20260905091048 | 21 | 283 | 4.8 | 12.9 | 0.00 | 0.20 | 0.20 | 58 | 1022.6 |
| 20260905085548 | 20 | 313 | 1.6 | 22.5 | 0.00 | 0.20 | 0.20 | 63 | 1022.3 |
| 20260905084047 | 21 | 271 | 3.2 | 16.1 | 0.00 | 0.20 | 0.20 | 63 | 1022.4 |
| 20260905082541 | 19 | 259 | 1.6 | 20.9 | 0.00 | 0.20 | 0.20 | 68 | 1022.4 |
| 20260905081042 | 18 | 225 | 1.6 | 6.4 | 0.00 | 0.20 | 0.20 | 73 | 1022.1 |
| 20260905075540 | 18 | 229 | 1.6 | 11.3 | 0.00 | 0.20 | 0.20 | 73 | 1022.1 |
| 20260905074041 | 18 | 277 | 0.0 | 14.5 | 0.00 | 0.20 | 0.20 | 75 | 1021.9 |
| 20260905072540 | 17 | 251 | 1.6 | 16.1 | 0.00 | 0.20 | 0.20 | 76 | 1021.9 |
| 20260905071037 | 15 | 265 | 3.2 | 11.3 | 0.00 | 0.20 | 0.20 | 82 | 1021.8 |
| 20260905065538 | 16 | 258 | 1.6 | 9.7 | 0.00 | 0.20 | 0.20 | 77 | 1021.7 |
| 20260905064033 | 16 | 280 | 1.6 | 17.7 | 0.00 | 0.20 | 0.20 | 80 | 1021.7 |
| 20260905062414 | 17 | 267 | 0.0 | 9.7 | 0.00 | 0.20 | 0.20 | 77 | 1021.7 |
| 20260905060908 | 17 | 263 | 1.6 | 12.9 | 0.00 | 0.20 | 0.20 | 80 | 1021.5 |
| 20260905055408 | 15 | 239 | 0.0 | 4.8 | 0.00 | 0.20 | 0.20 | 84 | 1021.5 |
| 20260905053907 | 14 | 262 | 0.0 | 3.2 | 0.00 | 0.20 | 0.20 | 88 | 1021.2 |
| 20260905052407 | 12 | 276 | 0.0 | 4.8 | 0.00 | 0.20 | 0.20 | 90 | 1021.0 |
| 20260905050907 | 12 | 248 | 0.0 | 4.8 | 0.00 | 0.20 | 0.20 | 90 | 1020.7 |
| 20260905045414 | 12 | 268 | 0.0 | 9.7 | 0.00 | 0.20 | 0.20 | 90 | 1020.6 |
| 20260905043908 | 12 | 230 | 0.0 | 6.4 | 0.03 | 0.20 | 0.20 | 91 | 1020.1 |
| 20260905042407 | 13 | 280 | 0.0 | 6.4 | 0.10 | 0.20 | 0.20 | 91 | 1020.3 |
| 20260905040909 | 13 | 234 | 3.2 | 14.5 | 0.13 | 0.20 | 0.20 | 90 | 1020.0 |
| 20260905035407 | 13 | 222 | 1.6 | 9.7 | 0.15 | 0.20 | 0.20 | 90 | 1019.9 |
| 20260905033907 | 13 | 223 | 3.2 | 16.1 | 0.13 | 0.18 | 0.18 | 89 | 1019.1 |
| 20260905032407 | 13 | 270 | 0.0 | 12.9 | 0.05 | 0.10 | 0.10 | 89 | 1020.1 |
| 20260905030913 | 14 | 224 | 0.0 | 6.4 | 0.08 | 0.10 | 0.10 | 89 | 1019.9 |
| 20260905025407 | 14 | 268 | 0.0 | 4.8 | 0.05 | 0.05 | 0.05 | 89 | 1019.3 |
| 20260905023908 | 15 | 256 | 1.6 | 11.3 | 0.05 | 0.05 | 0.05 | 90 | 1019.3 |
| 20260905022409 | 15 | 228 | 3.2 | 11.3 | 0.05 | 0.05 | 0.05 | 89 | 1019.0 |
| 20260905020910 | 15 | 209 | 0.0 | 0.0 | 0.03 | 0.03 | 0.03 | 89 | 1019.4 |
| 20260905015345 | 15 | 209 | 1.6 | 6.4 | 0.03 | 0.03 | 0.03 | 88 | 1018.0 |
| 20260905013837 | 15 | 234 | 0.0 | 6.4 | 0.00 | 0.00 | 0.00 | 86 | 1018.7 |
| 20260905012337 | 15 | 245 | 3.2 | 4.8 | 0.00 | 0.00 | 0.00 | 86 | 1018.4 |
| 20260905010830 | 15 | 285 | 0.0 | 1.6 | 0.00 | 0.00 | 0.00 | 86 | 1018.5 |
| 20260905005325 | 16 | 311 | 0.0 | 0.0 | 0.00 | 0.00 | 0.00 | 85 | 1018.8 |
| 20260905003823 | 16 | 311 | 0.0 | 3.2 | 0.00 | 0.00 | 0.00 | 85 | 1018.3 |
| 20260905002322 | 16 | 335 | 0.0 | 3.2 | 0.00 | 0.00 | 0.00 | 85 | 1018.0 |
| 20260905000822 | 16 | 289 | 0.0 | 4.8 | 0.00 | 0.00 | 0.00 | 83 | 1018.3 |
| 20260904235319 | 16 | 326 | 1.6 | 6.4 | 0.00 | 0.00 | 0.00 | 82 | 1018.0 |
| 20260904233818 | 17 | 321 | 1.6 | 17.7 | 0.00 | 0.00 | 0.00 | 80 | 1017.6 |
| 20260904232317 | 17 | 283 | 3.2 | 12.9 | 0.00 | 0.00 | 0.00 | 78 | 1017.7 |
| 20260904230810 | 17 | 251 | 4.8 | 14.5 | 0.00 | 0.00 | 0.00 | 74 | 1017.0 |
| 20260904225311 | 17 | 301 | 3.2 | 12.9 | 0.00 | 0.00 | 0.00 | 74 | 1016.7 |
| 20260904223754 | 17 | 345 | 0.0 | 14.5 | 0.00 | 0.00 | 0.00 | 74 | 1016.3 |
| 20260904222253 | 17 | 13 | 4.8 | 20.9 | 0.00 | 0.00 | 0.00 | 74 | 1016.1 |
| 20260904220751 | 17 | 46 | 3.2 | 14.5 | 0.00 | 0.00 | 0.00 | 73 | 1016.0 |
| 20260904215248 | 17 | 342 | 4.8 | 17.7 | 0.00 | 0.00 | 0.00 | 71 | 1015.3 |
| 20260904213757 | 17 | 309 | 1.6 | 12.9 | 0.00 | 0.00 | 0.00 | 72 | 1015.1 |
| 20260904212239 | 18 | 4 | 3.2 | 11.3 | 0.00 | 0.00 | 0.00 | 73 | 1014.8 |